Geervliet — PCLI — position and weather

sailwx.info

Track history (hours):
 
Tides and Currents Weather Stations Pressure Air Temp Water Temp Dewpoint Dewpoint Depression Visibility Wind Speed Wind Dir Waves Ship Positions

Geervliet

Last reported at 2015-May-19 05:05 UTC. Time now 2015-May-22 11:37 UTC.
Position N 37°40' E 024°30'.

Length 86 m; draft 3.6 m.

Type: Cargo ship. MMSI: 246803000.

Date/timePositionNaut miles runAvg speedWind from/ knotsBaromVisibWave heightAir tempDewpointWater temp
2015-May-19 05:05N 37°40' E 024°30'4310.6
2015-May-19 01:03N 37°06' E 023°57'610.6
2015-May-19 00:30N 37°01' E 023°53'1111.1
2015-May-18 23:30N 36°52' E 023°44'1111.1
2015-May-18 22:31N 36°44' E 023°36'1111.0
2015-May-18 21:34N 36°36' E 023°27'1311.1
2015-May-18 20:24N 36°27' E 023°16'228 9.5
2015-May-17 20:25N 38°57' E 019°39'910.9
2015-May-17 19:33N 39°05' E 019°33'1111.3
2015-May-17 18:33N 39°14' E 019°25'1211.2
2015-May-17 17:29N 39°25' E 019°17'1011.0
2015-May-17 16:33N 39°33' E 019°10'1110.9
2015-May-17 15:33N 39°42' E 019°02'1110.9
2015-May-17 14:34N 39°52' E 018°55'1110.8
2015-May-17 13:33N 40°01' E 018°47'1110.8
2015-May-17 12:33N 40°10' E 018°39'1010.4
2015-May-17 11:33N 40°18' E 018°31'1110.8
2015-May-17 10:33N 40°27' E 018°24'  
2015-May-13 07:13N 41°04' E 017°49'710.6
2015-May-13 06:33N 40°58' E 017°54'1110.5
2015-May-13 05:33N 40°50' E 018°04'1010.3
2015-May-13 04:33N 40°42' E 018°13'1010.3
2015-May-13 03:33N 40°33' E 018°19'1010.1
2015-May-13 02:33N 40°25' E 018°27'1010.1
2015-May-13 01:33N 40°16' E 018°33'10 9.6
2015-May-13 00:33N 40°07' E 018°36'9 9.5
2015-May-12 23:33N 39°58' E 018°33'9 9.4
2015-May-12 22:33N 39°49' E 018°28'172 9.0
2015-May-12 03:27N 38°03' E 015°34'17 8.6
2015-May-12 01:30N 38°20' E 015°33'1111.4
2015-May-12 00:33N 38°20' E 015°19'3711.2
2015-May-11 21:14N 38°19' E 014°31'711.1
2015-May-11 20:33N 38°18' E 014°22'1110.7
2015-May-11 19:32N 38°18' E 014°08'1010.5
2015-May-11 18:33N 38°18' E 013°55'10 9.9
2015-May-11 17:33N 38°18' E 013°42'10 9.7
2015-May-11 16:33N 38°17' E 013°30'1110.7
2015-May-11 15:33N 38°17' E 013°16'1110.6
2015-May-11 14:33N 38°16' E 013°03'1010.3
2015-May-11 13:33N 38°15' E 012°50'1010.3
2015-May-11 12:33N 38°14' E 012°37'1010.0
2015-May-11 11:33N 38°12' E 012°24'1010.3
2015-May-11 10:33N 38°10' E 012°12'1010.0
2015-May-11 09:33N 38°09' E 011°59'1110.5
2015-May-11 08:29N 38°07' E 011°45'1010.6
2015-May-11 07:33N 38°06' E 011°32'1010.2
2015-May-11 06:33N 38°04' E 011°20'1110.7
2015-May-11 05:33N 38°02' E 011°06'10 9.5
2015-May-11 04:33N 38°01' E 010°54'1111.1
2015-May-11 03:33N 37°59' E 010°40'9910.7
2015-May-10 18:20N 37°44' E 008°37'3410.8
2015-May-10 15:15N 37°38' E 007°55'18511.0
2015-May-09 22:24N 37°09' E 004°05'910.9
2015-May-09 21:33N 37°08' E 003°54'1110.9
2015-May-09 20:33N 37°06' E 003°40'1110.9
2015-May-09 19:33N 37°05' E 003°27'1111.4
2015-May-09 18:33N 37°03' E 003°13'1211.5
2015-May-09 17:33N 37°01' E 002°58'1211.5
2015-May-09 16:33N 36°59' E 002°44'1110.6
2015-May-09 15:33N 36°58' E 002°31'1410.8
2015-May-09 14:18N 36°55' E 002°14'911.6
2015-May-09 13:31N 36°54' E 002°03'1511.4
2015-May-09 12:11N 36°52' E 001°44'4411.9
2015-May-09 08:32N 36°45' E 000°51'2411.5
2015-May-09 06:28N 36°41' E 000°21'1111.0
2015-May-09 05:28N 36°40' E 000°08'  
Track history (hours):
 
Tides and Currents Weather Stations Pressure Air Temp Water Temp Dewpoint Dewpoint Depression Visibility Wind Speed Wind Dir Waves Ship Positions

Geervliet

Last reported at 2015-May-19 05:05 UTC. Time now 2015-May-22 11:37 UTC.
Position N 37°40' E 024°30'.

Length 86 m; draft 3.6 m.

Type: Cargo ship. MMSI: 246803000.

Date/timePositionNaut miles runAvg speedWind from/ knotsBaromVisibWave heightAir tempDewpointWater temp
2015-May-19 05:05N 37°40' E 024°30'4310.6
2015-May-19 01:03N 37°06' E 023°57'610.6
2015-May-19 00:30N 37°01' E 023°53'1111.1
2015-May-18 23:30N 36°52' E 023°44'1111.1
2015-May-18 22:31N 36°44' E 023°36'1111.0
2015-May-18 21:34N 36°36' E 023°27'1311.1
2015-May-18 20:24N 36°27' E 023°16'228 9.5
2015-May-17 20:25N 38°57' E 019°39'910.9
2015-May-17 19:33N 39°05' E 019°33'1111.3
2015-May-17 18:33N 39°14' E 019°25'1211.2
2015-May-17 17:29N 39°25' E 019°17'1011.0
2015-May-17 16:33N 39°33' E 019°10'1110.9
2015-May-17 15:33N 39°42' E 019°02'1110.9
2015-May-17 14:34N 39°52' E 018°55'1110.8
2015-May-17 13:33N 40°01' E 018°47'1110.8
2015-May-17 12:33N 40°10' E 018°39'1010.4
2015-May-17 11:33N 40°18' E 018°31'1110.8
2015-May-17 10:33N 40°27' E 018°24'  
2015-May-13 07:13N 41°04' E 017°49'710.6
2015-May-13 06:33N 40°58' E 017°54'1110.5
2015-May-13 05:33N 40°50' E 018°04'1010.3
2015-May-13 04:33N 40°42' E 018°13'1010.3
2015-May-13 03:33N 40°33' E 018°19'1010.1
2015-May-13 02:33N 40°25' E 018°27'1010.1
2015-May-13 01:33N 40°16' E 018°33'10 9.6
2015-May-13 00:33N 40°07' E 018°36'9 9.5
2015-May-12 23:33N 39°58' E 018°33'9 9.4
2015-May-12 22:33N 39°49' E 018°28'172 9.0
2015-May-12 03:27N 38°03' E 015°34'17 8.6
2015-May-12 01:30N 38°20' E 015°33'1111.4
2015-May-12 00:33N 38°20' E 015°19'3711.2
2015-May-11 21:14N 38°19' E 014°31'711.1
2015-May-11 20:33N 38°18' E 014°22'1110.7
2015-May-11 19:32N 38°18' E 014°08'1010.5
2015-May-11 18:33N 38°18' E 013°55'10 9.9
2015-May-11 17:33N 38°18' E 013°42'10 9.7
2015-May-11 16:33N 38°17' E 013°30'1110.7
2015-May-11 15:33N 38°17' E 013°16'1110.6
2015-May-11 14:33N 38°16' E 013°03'1010.3
2015-May-11 13:33N 38°15' E 012°50'1010.3
2015-May-11 12:33N 38°14' E 012°37'1010.0
2015-May-11 11:33N 38°12' E 012°24'1010.3
2015-May-11 10:33N 38°10' E 012°12'1010.0
2015-May-11 09:33N 38°09' E 011°59'1110.5
2015-May-11 08:29N 38°07' E 011°45'1010.6
2015-May-11 07:33N 38°06' E 011°32'1010.2
2015-May-11 06:33N 38°04' E 011°20'1110.7
2015-May-11 05:33N 38°02' E 011°06'10 9.5
2015-May-11 04:33N 38°01' E 010°54'1111.1
2015-May-11 03:33N 37°59' E 010°40'9910.7
2015-May-10 18:20N 37°44' E 008°37'3410.8
2015-May-10 15:15N 37°38' E 007°55'18511.0
2015-May-09 22:24N 37°09' E 004°05'910.9
2015-May-09 21:33N 37°08' E 003°54'1110.9
2015-May-09 20:33N 37°06' E 003°40'1110.9
2015-May-09 19:33N 37°05' E 003°27'1111.4
2015-May-09 18:33N 37°03' E 003°13'1211.5
2015-May-09 17:33N 37°01' E 002°58'1211.5
2015-May-09 16:33N 36°59' E 002°44'1110.6
2015-May-09 15:33N 36°58' E 002°31'1410.8
2015-May-09 14:18N 36°55' E 002°14'911.6
2015-May-09 13:31N 36°54' E 002°03'1511.4
2015-May-09 12:11N 36°52' E 001°44'4411.9
2015-May-09 08:32N 36°45' E 000°51'2411.5
2015-May-09 06:28N 36°41' E 000°21'1111.0
2015-May-09 05:28N 36°40' E 000°08'  

Dump ship's entire track history